Terminal Aerodrome Forecast
Issued by NWS Knoxville/Tri Cities, TN

Home | Current Version | Previous Version | Text Only | Print | Product List | Glossary On
Versions: 1 2 3 4 5 6 7 8 9 10 11 12
000
FTUS44 KMRX 250529
TAFTYS
TAF
KTYS 250529Z 2506/2606 23003KT P6SM SCT250
     FM251500 24006KT P6SM SCT050 BKN200
     FM252100 25006KT P6SM VCTS BKN050CB
     FM260400 VRB04KT P6SM SCT050 SCT250=

USA.gov is the U.S. government's official web portal to all federal, state and local government web resources and services.